Dale Hollow Observed Data For Previous 48 Hours

Caption
Day and Hour Reservoir Elevation (behind dam)* Tailwater Elevation (below dam)* Average Hourly Discharge*
11/11/2018 1 AM CST 646.76 505.26 25
11/11/2018 2 AM CST 646.76 505.16 25
11/11/2018 3 AM CST 646.76 505.06 25
11/11/2018 4 AM CST 646.76 504.96 25
11/11/2018 5 AM CST 646.76 504.86 25
11/11/2018 6 AM CST 646.76 508.06 1,585
11/11/2018 7 AM CST 646.77 508.87 1,595
11/11/2018 8 AM CST 646.77 509.07 1,595
11/11/2018 9 AM CST 646.78 508.98 1,595
11/11/2018 10 AM CST 646.77 509.07 1,595
11/11/2018 11 AM CST 646.77 509.07 1,595
11/11/2018 12 PM CST 646.77 508.97 1,595
11/11/2018 1 PM CST 646.78 505.98 25
11/11/2018 2 PM CST 646.77 505.07 25
11/11/2018 3 PM CST 646.77 504.97 25
11/11/2018 4 PM CST 646.77 504.87 25
11/11/2018 5 PM CST 646.81 504.71 25
11/11/2018 6 PM CST 646.81 508.11 1,585
11/11/2018 7 PM CST 646.81 508.81 1,595
11/11/2018 8 PM CST 646.91 509.01 1,595
11/11/2018 9 PM CST 646.81 509.11 1,595
11/11/2018 10 PM CST 646.81 509.11 1,595
11/11/2018 11 PM CST 646.81 506.11 25
11/12/2018 12 AM CST 646.81 505.11 25
11/12/2018 1 AM CST 646.81 505.11 25
11/12/2018 2 AM CST 646.81 505.01 25
11/12/2018 3 AM CST 646.81 504.81 25
11/12/2018 4 AM CST 646.81 504.71 25
11/12/2018 5 AM CST 646.81 504.61 25
11/12/2018 6 AM CST 646.81 508.81 1,595
11/12/2018 7 AM CST 646.81 508.71 1,595
11/12/2018 8 AM CST 646.81 508.81 1,595
11/12/2018 9 AM CST 646.81 508.91 1,595
11/12/2018 10 AM CST 646.82 508.82 1,595
11/12/2018 11 AM CST 646.82 508.82 1,595
11/12/2018 12 PM CST 646.82 508.82 1,595
11/12/2018 1 PM CST 646.86 505.76 25
11/12/2018 2 PM CST 646.86 504.76 25
11/12/2018 3 PM CST 646.86 504.36 25
11/12/2018 4 PM CST 646.86 504.26 25
11/12/2018 5 PM CST 646.86 504.06 25
11/12/2018 6 PM CST 646.86 507.76 1,575
11/12/2018 7 PM CST 646.86 508.56 1,585
11/12/2018 8 PM CST 646.86 508.66 1,595
11/12/2018 9 PM CST 646.86 508.76 1,595
11/12/2018 10 PM CST 646.86 508.76 1,595
11/12/2018 11 PM CST 646.86 505.76 25
11/13/2018 12 AM CST 646.86 504.76 25
11/13/2018 1 AM CST 646.87 504.07 25
11/13/2018 2 AM CST 646.88 504.08 25
11/13/2018 3 AM CST 646.92 504.12 25
11/13/2018 4 AM CST 646.92 504.12 25
11/13/2018 5 AM CST 646.92 504.12 25
11/13/2018 6 AM CST 646.92 507.82 1,575
11/13/2018 7 AM CST 646.92 508.72 1,595
11/13/2018 8 AM CST 646.92 508.82 1,595
11/13/2018 9 AM CST 646.92 508.92 1,595

Elevations are in feet above sea level. Discharges are in cubic feet per second and are reported at the end of the hour.